createdAt,value
2016-03-16T00:00:38.559Z,0
2016-03-16T00:01:38.531Z,0
2016-03-16T00:02:38.581Z,0
2016-03-16T00:03:38.552Z,0
2016-03-16T00:04:38.601Z,0
2016-03-16T00:05:38.588Z,0
2016-03-16T00:06:38.606Z,0
2016-03-16T00:07:38.640Z,0
2016-03-16T00:08:38.627Z,0
2016-03-16T00:09:38.646Z,0
2016-03-16T00:10:38.680Z,0
2016-03-16T00:11:38.667Z,0
2016-03-16T00:12:38.701Z,0
2016-03-16T00:13:38.688Z,0
2016-03-16T00:14:38.722Z,0
2016-03-16T00:15:38.710Z,0
2016-03-16T00:16:38.758Z,0
2016-03-16T00:17:38.730Z,0
2016-03-16T00:18:38.763Z,0
2016-03-16T00:19:38.742Z,0
2016-03-16T00:20:38.748Z,0
2016-03-16T00:21:38.629Z,0
2016-03-16T00:22:38.948Z,0
2016-03-16T00:23:38.767Z,0
2016-03-16T00:24:38.764Z,0
2016-03-16T00:25:38.778Z,0
2016-03-16T00:26:38.777Z,0
2016-03-16T00:27:38.806Z,0
2016-03-16T00:28:38.805Z,0
2016-03-16T00:29:38.836Z,0
2016-03-16T00:30:38.826Z,0
2016-03-16T00:31:38.874Z,0
2016-03-16T00:32:38.844Z,0
2016-03-16T00:33:38.876Z,0
2016-03-16T00:34:38.879Z,0
2016-03-16T00:35:38.896Z,0
2016-03-16T00:36:38.930Z,0
2016-03-16T00:37:38.932Z,0
2016-03-16T00:38:38.934Z,0
2016-03-16T00:39:38.936Z,0
2016-03-16T00:40:38.955Z,0
2016-03-16T00:41:38.973Z,0
2016-03-16T00:42:39.006Z,0
2016-03-16T00:43:38.978Z,0
2016-03-16T00:44:39.058Z,0
2016-03-16T00:45:39.014Z,0
2016-03-16T00:46:39.078Z,0
2016-03-16T00:47:39.035Z,0
2016-03-16T00:48:38.928Z,0
2016-03-16T00:49:39.072Z,0
2016-03-16T00:50:39.121Z,0
2016-03-16T00:51:39.077Z,0
2016-03-16T00:52:39.095Z,0
2016-03-16T00:53:39.129Z,0
2016-03-16T00:54:39.147Z,0
2016-03-16T00:55:39.150Z,0
2016-03-16T00:56:39.168Z,0
2016-03-16T00:57:39.171Z,0
2016-03-16T00:58:39.175Z,0
2016-03-16T00:59:39.239Z,0
2016-03-16T01:00:39.196Z,0
2016-03-16T01:01:39.244Z,0
2016-03-16T01:02:39.232Z,0
2016-03-16T01:03:39.266Z,0
2016-03-16T01:04:39.253Z,0
2016-03-16T01:05:39.271Z,0
2016-03-16T01:06:39.149Z,0
2016-03-16T01:07:39.311Z,0
2016-03-16T01:08:39.330Z,0
2016-03-16T01:09:39.347Z,0
2016-03-16T01:10:39.349Z,0
2016-03-16T01:11:39.337Z,0
2016-03-16T01:12:39.371Z,0
2016-03-16T01:13:39.378Z,0
2016-03-16T01:14:39.397Z,0
2016-03-16T01:15:39.400Z,0
2016-03-16T01:16:39.433Z,0
2016-03-16T01:17:39.468Z,0
2016-03-16T01:18:39.439Z,0
2016-03-16T01:19:39.473Z,0
2016-03-16T01:20:39.444Z,0
2016-03-16T01:21:39.526Z,0
2016-03-16T01:22:39.512Z,0
2016-03-16T01:23:39.547Z,0
2016-03-16T01:24:39.518Z,0
2016-03-16T01:25:39.536Z,0
2016-03-16T01:26:39.555Z,0
2016-03-16T01:27:39.558Z,0
2016-03-16T01:28:39.575Z,0
2016-03-16T01:29:39.594Z,0
2016-03-16T01:30:39.596Z,0
2016-03-16T01:31:39.599Z,0
2016-03-16T01:32:39.617Z,0
2016-03-16T01:33:39.636Z,0
2016-03-16T01:34:39.654Z,0
2016-03-16T01:35:39.641Z,0
2016-03-16T01:36:39.722Z,0
2016-03-16T01:37:39.678Z,0
2016-03-16T01:38:39.727Z,0
2016-03-16T01:39:39.715Z,0
2016-03-16T01:40:39.733Z,0
2016-03-16T01:41:39.751Z,0
2016-03-16T01:42:39.754Z,0
2016-03-16T01:43:39.787Z,0
2016-03-16T01:44:39.853Z,0
2016-03-16T01:45:39.809Z,0
2016-03-16T01:46:39.826Z,0
2016-03-16T01:47:39.829Z,0
2016-03-16T01:48:39.864Z,0
2016-03-16T01:49:39.851Z,0
2016-03-16T01:50:39.931Z,0
2016-03-16T01:51:39.872Z,0
2016-03-16T01:52:39.921Z,0
2016-03-16T01:53:39.893Z,0
2016-03-16T01:54:39.958Z,0
2016-03-16T01:55:39.914Z,0
2016-03-16T01:56:39.979Z,0
2016-03-16T01:57:39.967Z,0
2016-03-16T01:58:40.000Z,0
2016-03-16T01:59:39.972Z,0
2016-03-16T02:00:40.037Z,0
2016-03-16T02:01:40.008Z,0
2016-03-16T02:02:40.027Z,0
2016-03-16T02:03:40.030Z,0
2016-03-16T02:04:40.047Z,0
2016-03-16T02:05:40.081Z,0
2016-03-16T02:06:40.084Z,0
2016-03-16T02:07:40.101Z,0
2016-03-16T02:08:40.073Z,0
2016-03-16T02:09:40.123Z,0
2016-03-16T02:10:40.125Z,0
2016-03-16T02:11:40.143Z,0
2016-03-16T02:12:40.146Z,0
2016-03-16T02:13:40.165Z,0
2016-03-16T02:14:40.198Z,0
2016-03-16T02:15:40.200Z,0
2016-03-16T02:16:40.204Z,0
2016-03-16T02:17:40.206Z,0
2016-03-16T02:18:40.225Z,0
2016-03-16T02:19:40.243Z,0
2016-03-16T02:20:40.247Z,0
2016-03-16T02:21:40.265Z,0
2016-03-16T02:22:40.284Z,0
2016-03-16T02:23:40.270Z,0
2016-03-16T02:24:40.304Z,0
2016-03-16T02:25:40.307Z,0
2016-03-16T02:26:40.325Z,0
2016-03-16T02:27:40.328Z,0
2016-03-16T02:28:40.346Z,0
2016-03-16T02:29:40.381Z,0
2016-03-16T02:30:40.367Z,0
2016-03-16T02:31:40.386Z,0
2016-03-16T02:32:40.420Z,0
2016-03-16T02:33:40.453Z,0
2016-03-16T02:34:40.409Z,0
2016-03-16T02:35:40.491Z,0
2016-03-16T02:36:40.462Z,0
2016-03-16T02:37:40.496Z,0
2016-03-16T02:38:40.499Z,0
2016-03-16T02:39:40.501Z,0
2016-03-16T02:40:40.519Z,0
2016-03-16T02:41:40.538Z,0
2016-03-16T02:42:40.525Z,0
2016-03-16T02:43:40.558Z,0
2016-03-16T02:44:40.593Z,0
2016-03-16T02:45:40.595Z,0
2016-03-16T02:46:40.598Z,0
2016-03-16T02:47:40.600Z,0
2016-03-16T02:48:40.619Z,0
2016-03-16T02:49:40.637Z,0
2016-03-16T02:50:39.874Z,0
2016-03-16T02:51:40.689Z,0
2016-03-16T02:52:40.661Z,0
2016-03-16T02:53:40.695Z,0
2016-03-16T02:54:40.667Z,0
2016-03-16T02:55:40.716Z,0
2016-03-16T02:56:40.734Z,0
2016-03-16T02:57:40.753Z,0
2016-03-16T02:58:40.770Z,0
2016-03-16T02:59:40.758Z,0
2016-03-16T03:00:40.761Z,0
2016-03-16T03:01:40.811Z,0
2016-03-16T03:02:40.828Z,0
2016-03-16T03:03:40.799Z,0
2016-03-16T03:04:40.849Z,0
2016-03-16T03:05:40.821Z,0
2016-03-16T03:06:40.886Z,0
2016-03-16T03:07:40.857Z,0
2016-03-16T03:08:40.891Z,0
2016-03-16T03:09:40.878Z,0
2016-03-16T03:10:40.897Z,0
2016-03-16T03:11:40.930Z,0
2016-03-16T03:12:40.918Z,0
2016-03-16T03:13:40.936Z,0
2016-03-16T03:14:40.939Z,0
2016-03-16T03:15:40.957Z,0
2016-03-16T03:16:40.975Z,0
2016-03-16T03:17:41.010Z,0
2016-03-16T03:18:41.012Z,0
2016-03-16T03:19:41.030Z,0
2016-03-16T03:20:41.018Z,0
2016-03-16T03:21:41.067Z,0
2016-03-16T03:22:41.054Z,0
2016-03-16T03:23:41.120Z,0
2016-03-16T03:24:41.075Z,0
2016-03-16T03:25:41.109Z,0
2016-03-16T03:26:41.112Z,0
2016-03-16T03:27:41.130Z,0
2016-03-16T03:28:41.133Z,0
2016-03-16T03:29:41.136Z,0
2016-03-16T03:30:41.154Z,0
2016-03-16T03:31:41.172Z,0
2016-03-16T03:32:41.175Z,0
2016-03-16T03:33:41.209Z,0
2016-03-16T03:34:41.196Z,0
2016-03-16T03:35:41.230Z,0
2016-03-16T03:36:41.232Z,0
2016-03-16T03:37:41.267Z,0
2016-03-16T03:38:41.269Z,0
2016-03-16T03:39:41.302Z,0
2016-03-16T03:40:41.290Z,0
2016-03-16T03:41:41.324Z,0
2016-03-16T03:42:41.327Z,0
2016-03-16T03:43:41.329Z,0
2016-03-16T03:44:41.347Z,0
2016-03-16T03:45:41.366Z,0
2016-03-16T03:46:41.369Z,0
2016-03-16T03:47:41.402Z,0
2016-03-16T03:48:41.405Z,0
2016-03-16T03:49:41.408Z,0
2016-03-16T03:50:41.410Z,0
2016-03-16T03:51:41.429Z,0
2016-03-16T03:52:41.447Z,0
2016-03-16T03:53:41.450Z,0
2016-03-16T03:54:41.452Z,0
2016-03-16T03:55:41.486Z,0
2016-03-16T03:56:41.489Z,0
2016-03-16T03:57:41.507Z,0
2016-03-16T03:58:41.526Z,0
2016-03-16T03:59:41.544Z,0
2016-03-16T04:00:41.562Z,0
2016-03-16T04:01:41.581Z,0
2016-03-16T04:02:40.834Z,0
2016-03-16T04:03:41.570Z,0
2016-03-16T04:04:41.588Z,0
2016-03-16T04:05:41.607Z,0
2016-03-16T04:06:41.610Z,0
2016-03-16T04:07:41.627Z,0
2016-03-16T04:08:41.646Z,0
2016-03-16T04:09:41.649Z,0
2016-03-16T04:10:41.527Z,0
2016-03-16T04:11:41.702Z,0
2016-03-16T04:12:41.704Z,0
2016-03-16T04:13:41.754Z,0
2016-03-16T04:14:41.724Z,0
2016-03-16T04:15:41.774Z,0
2016-03-16T04:16:41.762Z,0
2016-03-16T04:17:41.764Z,0
2016-03-16T04:18:41.767Z,0
2016-03-16T04:19:41.801Z,0
2016-03-16T04:20:41.788Z,0
2016-03-16T04:21:41.806Z,0
2016-03-16T04:22:41.825Z,0
2016-03-16T04:23:41.843Z,0
2016-03-16T04:24:41.845Z,0
2016-03-16T04:25:41.879Z,0
2016-03-16T04:26:41.882Z,0
2016-03-16T04:27:41.901Z,0
2016-03-16T04:28:41.903Z,0
2016-03-16T04:29:41.922Z,0
2016-03-16T04:30:41.940Z,0
2016-03-16T04:31:41.943Z,0
2016-03-16T04:32:41.945Z,0
2016-03-16T04:33:41.979Z,0
2016-03-16T04:34:41.998Z,0
2016-03-16T04:35:41.984Z,0
2016-03-16T04:36:42.019Z,0
2016-03-16T04:37:42.021Z,0
2016-03-16T04:38:42.056Z,0
2016-03-16T04:39:42.074Z,0
2016-03-16T04:40:42.077Z,0
2016-03-16T04:41:42.079Z,0
2016-03-16T04:42:42.066Z,0
2016-03-16T04:43:42.147Z,0
2016-03-16T04:44:42.119Z,0
2016-03-16T04:45:42.152Z,0
2016-03-16T04:46:42.155Z,0
2016-03-16T04:47:42.157Z,0
2016-03-16T04:48:42.176Z,0
2016-03-16T04:49:42.226Z,0
2016-03-16T04:50:42.197Z,0
2016-03-16T04:51:42.231Z,0
2016-03-16T04:52:42.218Z,0
2016-03-16T04:53:42.251Z,0
2016-03-16T04:54:42.239Z,0
2016-03-16T04:55:42.304Z,0
2016-03-16T04:56:42.276Z,0
2016-03-16T04:57:42.325Z,0
2016-03-16T04:58:42.296Z,0
2016-03-16T04:59:42.315Z,0
2016-03-16T05:00:42.348Z,0
2016-03-16T05:01:42.336Z,0
2016-03-16T05:02:42.198Z,0
2016-03-16T05:03:42.373Z,0
2016-03-16T05:04:42.391Z,0
2016-03-16T05:05:42.425Z,0
2016-03-16T05:06:42.241Z,0
2016-03-16T05:07:42.483Z,0
2016-03-16T05:08:42.407Z,0
2016-03-16T05:09:42.442Z,0
2016-03-16T05:10:42.459Z,0
2016-03-16T05:11:42.478Z,0
2016-03-16T05:12:42.480Z,0
2016-03-16T05:13:42.342Z,0
2016-03-16T05:14:42.486Z,0
2016-03-16T05:15:42.395Z,0
2016-03-16T05:16:42.508Z,0
2016-03-16T05:17:42.556Z,0
2016-03-16T05:18:42.591Z,0
2016-03-16T05:19:42.561Z,0
2016-03-16T05:20:42.596Z,0
2016-03-16T05:21:42.583Z,0
2016-03-16T05:22:42.632Z,0
2016-03-16T05:23:42.604Z,0
2016-03-16T05:24:42.654Z,0
2016-03-16T05:25:42.641Z,0
2016-03-16T05:26:42.660Z,0
2016-03-16T05:27:42.662Z,0
2016-03-16T05:28:42.727Z,0
2016-03-16T05:29:42.682Z,0
2016-03-16T05:30:42.545Z,0
2016-03-16T05:31:42.735Z,0
2016-03-16T05:32:39.221Z,0
2016-03-16T05:33:42.771Z,0
2016-03-16T05:34:42.774Z,0
2016-03-16T05:35:42.761Z,0
2016-03-16T05:36:42.795Z,0
2016-03-16T05:37:42.814Z,0
2016-03-16T05:38:42.817Z,0
2016-03-16T05:39:42.820Z,0
2016-03-16T05:40:42.837Z,0
2016-03-16T05:41:42.887Z,0
2016-03-16T05:42:42.108Z,0
2016-03-16T05:43:42.892Z,0
2016-03-16T05:44:42.895Z,0
2016-03-16T05:45:42.928Z,5
2016-03-16T05:46:42.916Z,5
2016-03-16T05:47:42.949Z,5
2016-03-16T05:48:42.952Z,5
2016-03-16T05:49:42.971Z,10
2016-03-16T05:50:42.974Z,10
2016-03-16T05:51:42.977Z,15
2016-03-16T05:52:42.994Z,15
2016-03-16T05:53:42.997Z,15
2016-03-16T05:54:43.015Z,20
2016-03-16T05:55:43.033Z,20
2016-03-16T05:56:43.052Z,20
2016-03-16T05:57:43.086Z,20
2016-03-16T05:58:43.089Z,20
2016-03-16T05:59:43.077Z,25
2016-03-16T06:00:43.094Z,25
2016-03-16T06:01:43.129Z,30
2016-03-16T06:02:43.147Z,30
2016-03-16T06:03:43.134Z,30
2016-03-16T06:04:43.183Z,30
2016-03-16T06:05:43.170Z,30
2016-03-16T06:06:43.173Z,30
2016-03-16T06:07:43.190Z,35
2016-03-16T06:08:43.209Z,35
2016-03-16T06:09:43.212Z,40
2016-03-16T06:10:43.214Z,40
2016-03-16T06:11:43.234Z,45
2016-03-16T06:12:43.267Z,45
2016-03-16T06:13:43.301Z,45
2016-03-16T06:14:43.273Z,50
2016-03-16T06:15:43.306Z,50
2016-03-16T06:16:43.340Z,50
2016-03-16T06:17:43.311Z,50
2016-03-16T06:18:43.345Z,50
2016-03-16T06:19:43.348Z,50
2016-03-16T06:20:43.366Z,55
2016-03-16T06:21:43.353Z,55
2016-03-16T06:22:43.419Z,55
2016-03-16T06:23:43.374Z,55
2016-03-16T06:24:43.441Z,55
2016-03-16T06:25:43.411Z,55
2016-03-16T06:26:43.289Z,60
2016-03-16T06:27:43.449Z,60
2016-03-16T06:28:43.498Z,60
2016-03-16T06:29:43.468Z,60
2016-03-16T06:30:43.471Z,60
2016-03-16T06:31:43.474Z,65
2016-03-16T06:32:43.555Z,65
2016-03-16T06:33:43.511Z,65
2016-03-16T06:34:43.560Z,65
2016-03-16T06:35:43.532Z,65
2016-03-16T06:36:43.565Z,65
2016-03-16T06:37:42.819Z,60
2016-03-16T06:38:43.571Z,60
2016-03-16T06:39:43.651Z,65
2016-03-16T06:40:43.592Z,65
2016-03-16T06:41:43.642Z,65
2016-03-16T06:42:43.456Z,65
2016-03-16T06:43:43.663Z,75
2016-03-16T06:44:43.650Z,75
2016-03-16T06:45:43.731Z,80
2016-03-16T06:46:43.718Z,80
2016-03-16T06:47:43.533Z,80
2016-03-16T06:48:43.708Z,80
2016-03-16T06:49:43.725Z,80
2016-03-16T06:50:43.728Z,80
2016-03-16T06:51:43.747Z,80
2016-03-16T06:52:43.766Z,80
2016-03-16T06:53:43.769Z,80
2016-03-16T06:54:43.802Z,85
2016-03-16T06:55:43.805Z,80
2016-03-16T06:56:43.807Z,85
2016-03-16T06:57:43.825Z,95
2016-03-16T06:58:43.859Z,95
2016-03-16T06:59:43.846Z,95
2016-03-16T07:00:43.880Z,100
2016-03-16T07:01:43.899Z,100
2016-03-16T07:02:43.886Z,100
2016-03-16T07:03:43.905Z,100
2016-03-16T07:04:43.907Z,105
2016-03-16T07:05:43.926Z,105
2016-03-16T07:06:43.772Z,105
2016-03-16T07:07:43.962Z,105
2016-03-16T07:08:43.949Z,110
2016-03-16T07:09:43.982Z,110
2016-03-16T07:10:44.001Z,110
2016-03-16T07:11:44.019Z,110
2016-03-16T07:12:44.022Z,115
2016-03-16T07:13:44.040Z,115
2016-03-16T07:14:44.042Z,115
2016-03-16T07:15:44.030Z,115
2016-03-16T07:16:44.095Z,115
2016-03-16T07:17:44.411Z,120
2016-03-16T07:18:44.101Z,115
2016-03-16T07:19:44.119Z,115
2016-03-16T07:20:44.137Z,100
2016-03-16T07:21:44.139Z,90
2016-03-16T07:22:44.158Z,85
2016-03-16T07:23:44.161Z,85
2016-03-16T07:24:44.180Z,85
2016-03-16T07:25:44.198Z,85
2016-03-16T07:26:44.217Z,85
2016-03-16T07:27:44.250Z,90
2016-03-16T07:28:44.238Z,80
2016-03-16T07:29:44.240Z,80
2016-03-16T07:30:44.243Z,75
2016-03-16T07:31:44.276Z,75
2016-03-16T07:32:44.263Z,95
2016-03-16T07:33:44.297Z,95
2016-03-16T07:34:44.284Z,110
2016-03-16T07:35:44.396Z,90
2016-03-16T07:36:44.337Z,95
2016-03-16T07:37:44.402Z,100
2016-03-16T07:38:44.343Z,105
2016-03-16T07:39:44.360Z,90
2016-03-16T07:40:44.410Z,90
2016-03-16T07:41:44.397Z,95
2016-03-16T07:42:44.431Z,95
2016-03-16T07:43:44.480Z,95
2016-03-16T07:44:44.467Z,95
2016-03-16T07:45:44.470Z,90
2016-03-16T07:46:44.472Z,90
2016-03-16T07:47:44.553Z,90
2016-03-16T07:48:44.541Z,90
2016-03-16T07:49:44.606Z,95
2016-03-16T07:50:44.562Z,90
2016-03-16T07:51:44.549Z,90
2016-03-16T07:52:44.645Z,90
2016-03-16T07:53:44.647Z,90
2016-03-16T07:54:44.666Z,85
2016-03-16T07:55:44.653Z,80
2016-03-16T07:56:44.484Z,75
2016-03-16T07:57:44.456Z,75
2016-03-16T07:58:44.475Z,75
2016-03-16T07:59:44.680Z,70
2016-03-16T08:00:44.683Z,70
2016-03-16T08:01:44.732Z,70
2016-03-16T08:02:44.688Z,70
2016-03-16T08:03:44.737Z,70
2016-03-16T08:04:44.724Z,70
2016-03-16T08:05:44.743Z,70
2016-03-16T08:06:44.726Z,70
2016-03-16T08:07:44.729Z,70
2016-03-16T08:08:44.763Z,75
2016-03-16T08:09:44.797Z,90
2016-03-16T08:10:44.768Z,110
2016-03-16T08:11:44.817Z,155
2016-03-16T08:12:44.805Z,165
2016-03-16T08:13:44.822Z,165
2016-03-16T08:14:44.075Z,160
2016-03-16T08:15:44.875Z,155
2016-03-16T08:16:44.863Z,160
2016-03-16T08:17:44.880Z,165
2016-03-16T08:18:44.102Z,160
2016-03-16T08:19:44.918Z,165
2016-03-16T08:20:44.921Z,165
2016-03-16T08:21:44.938Z,165
2016-03-16T08:22:44.956Z,165
2016-03-16T08:23:44.959Z,170
2016-03-16T08:24:44.962Z,160
2016-03-16T08:25:44.996Z,130
2016-03-16T08:26:44.999Z,165
2016-03-16T08:27:45.017Z,130
2016-03-16T08:28:45.004Z,130
2016-03-16T08:29:45.038Z,160
2016-03-16T08:30:45.072Z,125
2016-03-16T08:31:45.043Z,120
2016-03-16T08:32:45.078Z,120
2016-03-16T08:33:44.923Z,120
2016-03-16T08:34:45.114Z,120
2016-03-16T08:35:45.132Z,120
2016-03-16T08:36:45.150Z,125
2016-03-16T08:37:45.169Z,140
2016-03-16T08:38:45.156Z,150
2016-03-16T08:39:45.205Z,135
2016-03-16T08:40:45.177Z,185
2016-03-16T08:41:45.210Z,190
2016-03-16T08:42:45.213Z,160
2016-03-16T08:43:45.232Z,185
2016-03-16T08:44:45.250Z,165
2016-03-16T08:45:45.268Z,165
2016-03-16T08:46:45.272Z,150
2016-03-16T08:47:45.289Z,150
2016-03-16T08:48:45.292Z,160
2016-03-16T08:49:45.294Z,180
2016-03-16T08:50:45.344Z,195
2016-03-16T08:51:45.347Z,190
2016-03-16T08:52:45.365Z,155
2016-03-16T08:53:45.430Z,150
2016-03-16T08:54:45.402Z,155
2016-03-16T08:55:45.421Z,190
2016-03-16T08:56:45.407Z,170
2016-03-16T08:57:45.457Z,160
2016-03-16T08:58:45.429Z,160
2016-03-16T08:59:45.446Z,155
2016-03-16T09:00:45.528Z,145
2016-03-16T09:01:45.546Z,145
2016-03-16T09:02:45.548Z,145
2016-03-16T09:03:45.551Z,145
2016-03-16T09:04:45.569Z,135
2016-03-16T09:05:45.620Z,130
2016-03-16T09:06:45.627Z,120
2016-03-16T09:07:45.661Z,120
2016-03-16T09:08:45.633Z,115
2016-03-16T09:09:45.728Z,115
2016-03-16T09:10:45.638Z,110
2016-03-16T09:11:45.749Z,110
2016-03-16T09:12:45.689Z,105
2016-03-16T09:13:45.755Z,100
2016-03-16T09:14:45.616Z,95
2016-03-16T09:15:45.760Z,90
2016-03-16T09:16:45.747Z,85
2016-03-16T09:17:45.702Z,90
2016-03-16T09:18:45.768Z,95
2016-03-16T09:19:45.754Z,100
2016-03-16T09:20:45.885Z,105
2016-03-16T09:21:45.795Z,115
2016-03-16T09:22:45.813Z,125
2016-03-16T09:23:45.801Z,130
2016-03-16T09:24:45.831Z,135
2016-03-16T09:25:45.669Z,140
2016-03-16T09:26:45.834Z,140
2016-03-16T09:27:45.752Z,140
2016-03-16T09:28:45.741Z,135
2016-03-16T09:29:46.603Z,130
2016-03-16T09:30:47.277Z,130
2016-03-16T09:31:45.822Z,125
2016-03-16T09:32:45.851Z,115
2016-03-16T09:33:45.833Z,105
2016-03-16T09:34:45.848Z,95
2016-03-16T09:35:45.865Z,85
2016-03-16T09:36:45.880Z,75
2016-03-16T09:37:45.866Z,70
2016-03-16T09:38:45.912Z,60
2016-03-16T09:39:45.913Z,55
2016-03-16T09:40:45.932Z,55
2016-03-16T09:41:45.981Z,55
2016-03-16T09:42:45.967Z,55
2016-03-16T09:43:45.953Z,55
2016-03-16T09:44:45.987Z,55
2016-03-16T09:45:46.006Z,55
2016-03-16T09:46:46.008Z,55
2016-03-16T09:47:46.026Z,55
2016-03-16T09:48:46.029Z,55
2016-03-16T09:49:46.078Z,55
2016-03-16T09:50:46.065Z,55
2016-03-16T09:51:46.099Z,55
2016-03-16T09:52:46.086Z,55
2016-03-16T09:53:46.105Z,55
2016-03-16T09:54:46.107Z,55
2016-03-16T09:55:46.126Z,55
2016-03-16T09:56:46.159Z,60
2016-03-16T09:57:45.987Z,60
2016-03-16T09:58:46.178Z,60
2016-03-16T09:59:46.196Z,60
2016-03-16T10:00:46.199Z,65
2016-03-16T10:01:46.185Z,65
2016-03-16T10:02:46.236Z,75
2016-03-16T10:03:46.238Z,80
2016-03-16T10:04:46.271Z,90
2016-03-16T10:05:46.243Z,95
2016-03-16T10:06:46.324Z,95
2016-03-16T10:07:46.279Z,100
2016-03-16T10:08:46.330Z,110
2016-03-16T10:09:46.317Z,115
2016-03-16T10:10:46.350Z,125
2016-03-16T10:11:46.323Z,130
2016-03-16T10:12:46.371Z,140
2016-03-16T10:13:46.374Z,140
2016-03-16T10:14:46.423Z,140
2016-03-16T10:15:46.427Z,135
2016-03-16T10:16:46.445Z,130
2016-03-16T10:17:46.432Z,130
2016-03-16T10:18:46.451Z,125
2016-03-16T10:19:46.484Z,125
2016-03-16T10:20:46.440Z,120
2016-03-16T10:21:46.520Z,115
2016-03-16T10:22:46.524Z,110
2016-03-16T10:23:46.558Z,105
2016-03-16T10:24:46.514Z,95
2016-03-16T10:25:46.531Z,85
2016-03-16T10:26:46.566Z,80
2016-03-16T10:27:46.584Z,80
2016-03-16T10:28:46.633Z,80
2016-03-16T10:29:46.683Z,85
2016-03-16T10:30:46.670Z,85
2016-03-16T10:31:46.641Z,85
2016-03-16T10:32:46.644Z,85
2016-03-16T10:33:46.741Z,85
2016-03-16T10:34:46.665Z,85
2016-03-16T10:35:46.683Z,90
2016-03-16T10:36:46.702Z,95
2016-03-16T10:37:46.721Z,100
2016-03-16T10:38:46.723Z,105
2016-03-16T10:39:46.773Z,105
2016-03-16T10:40:46.743Z,110
2016-03-16T10:41:46.762Z,115
2016-03-16T10:42:46.812Z,125
2016-03-16T10:43:46.861Z,125
2016-03-16T10:44:46.707Z,120
2016-03-16T10:45:46.820Z,120
2016-03-16T10:46:46.837Z,125
2016-03-16T10:47:46.887Z,130
2016-03-16T10:48:46.890Z,135
2016-03-16T10:49:46.862Z,140
2016-03-16T10:50:46.911Z,145
2016-03-16T10:51:46.899Z,145
2016-03-16T10:52:46.901Z,140
2016-03-16T10:53:46.936Z,140
2016-03-16T10:54:46.969Z,155
2016-03-16T10:55:46.941Z,160
2016-03-16T10:56:46.975Z,160
2016-03-16T10:57:47.009Z,160
2016-03-16T10:58:46.995Z,155
2016-03-16T10:59:47.014Z,150
2016-03-16T11:00:47.047Z,150
2016-03-16T11:01:47.036Z,185
2016-03-16T11:02:47.053Z,150
2016-03-16T11:03:47.056Z,140
2016-03-16T11:04:47.091Z,175
2016-03-16T11:05:47.093Z,135
2016-03-16T11:06:47.127Z,135
2016-03-16T11:07:47.129Z,130
2016-03-16T11:08:47.132Z,135
2016-03-16T11:09:47.166Z,135
2016-03-16T11:10:47.185Z,150
2016-03-16T11:11:47.202Z,160
2016-03-16T11:12:47.221Z,165
2016-03-16T11:13:47.208Z,165
2016-03-16T11:14:47.226Z,165
2016-03-16T11:15:47.245Z,165
2016-03-16T11:16:47.279Z,155
2016-03-16T11:17:47.282Z,150
2016-03-16T11:18:47.284Z,140
2016-03-16T11:19:47.334Z,130
2016-03-16T11:20:47.305Z,125
2016-03-16T11:21:47.339Z,125
2016-03-16T11:22:47.357Z,120
2016-03-16T11:23:47.375Z,115
2016-03-16T11:24:47.395Z,115
2016-03-16T11:25:47.412Z,120
2016-03-16T11:26:47.414Z,135
2016-03-16T11:27:47.402Z,145
2016-03-16T11:28:47.436Z,150
2016-03-16T11:29:47.454Z,155
2016-03-16T11:30:47.457Z,155
2016-03-16T11:31:47.492Z,155
2016-03-16T11:32:47.541Z,150
2016-03-16T11:33:47.512Z,145
2016-03-16T11:34:47.514Z,145
2016-03-16T11:35:47.563Z,140
2016-03-16T11:36:47.552Z,135
2016-03-16T11:37:47.554Z,125
2016-03-16T11:38:47.603Z,125
2016-03-16T11:39:47.605Z,125
2016-03-16T11:40:47.625Z,125
2016-03-16T11:41:47.611Z,135
2016-03-16T11:42:47.645Z,130
2016-03-16T11:43:47.680Z,135
2016-03-16T11:44:47.666Z,140
2016-03-16T11:45:47.669Z,140
2016-03-16T11:46:47.718Z,145
2016-03-16T11:47:47.815Z,155
2016-03-16T11:48:47.709Z,160
2016-03-16T11:49:47.743Z,165
2016-03-16T11:50:47.823Z,170
2016-03-16T11:51:47.810Z,170
2016-03-16T11:52:47.876Z,165
2016-03-16T11:53:47.815Z,170
2016-03-16T11:54:47.834Z,170
2016-03-16T11:55:47.914Z,175
2016-03-16T11:56:47.856Z,175
2016-03-16T11:57:47.842Z,180
2016-03-16T11:58:47.892Z,180
2016-03-16T11:59:47.941Z,180
2016-03-16T12:00:47.881Z,180
2016-03-16T12:01:47.915Z,180
2016-03-16T12:02:47.949Z,185
2016-03-16T12:03:47.952Z,220
2016-03-16T12:04:48.002Z,185
2016-03-16T12:05:48.005Z,175
2016-03-16T12:06:47.975Z,170
2016-03-16T12:07:48.010Z,170
2016-03-16T12:08:48.028Z,165
2016-03-16T12:09:48.030Z,165
2016-03-16T12:10:48.096Z,165
2016-03-16T12:11:48.099Z,165
2016-03-16T12:12:48.069Z,165
2016-03-16T12:13:48.119Z,165
2016-03-16T12:14:48.107Z,160
2016-03-16T12:15:48.109Z,160
2016-03-16T12:16:48.159Z,160
2016-03-16T12:17:48.146Z,160
2016-03-16T12:18:48.180Z,165
2016-03-16T12:19:48.213Z,165
2016-03-16T12:20:48.232Z,175
2016-03-16T12:21:48.219Z,190
2016-03-16T12:22:47.471Z,195
2016-03-16T12:23:48.271Z,220
2016-03-16T12:24:48.273Z,215
2016-03-16T12:25:48.276Z,225
2016-03-16T12:26:48.295Z,250
2016-03-16T12:27:48.314Z,215
2016-03-16T12:28:48.300Z,195
2016-03-16T12:29:48.334Z,205
2016-03-16T12:30:48.353Z,175
2016-03-16T12:31:48.387Z,170
2016-03-16T12:32:48.373Z,180
2016-03-16T12:33:48.392Z,160
2016-03-16T12:34:48.411Z,195
2016-03-16T12:35:48.444Z,155
2016-03-16T12:36:48.431Z,215
2016-03-16T12:37:48.465Z,155
2016-03-16T12:38:48.937Z,155
2016-03-16T12:39:48.361Z,155
2016-03-16T12:40:48.505Z,165
2016-03-16T12:41:48.538Z,175
2016-03-16T12:42:48.541Z,175
2016-03-16T12:43:48.575Z,185
2016-03-16T12:44:48.563Z,195
2016-03-16T12:45:48.580Z,190
2016-03-16T12:46:48.598Z,250
2016-03-16T12:47:48.711Z,195
2016-03-16T12:48:48.666Z,190
2016-03-16T12:49:48.685Z,250
2016-03-16T12:50:48.656Z,235
2016-03-16T12:51:48.722Z,195
2016-03-16T12:52:48.677Z,250
2016-03-16T12:53:48.727Z,265
2016-03-16T12:54:48.729Z,255
2016-03-16T12:55:48.810Z,245
2016-03-16T12:56:48.751Z,205
2016-03-16T12:57:48.770Z,255
2016-03-16T12:58:48.803Z,250
2016-03-16T12:59:48.806Z,230
2016-03-16T13:00:48.809Z,230
2016-03-16T13:01:48.859Z,235
2016-03-16T13:02:48.845Z,235
2016-03-16T13:03:48.863Z,240
2016-03-16T13:04:48.804Z,245
2016-03-16T13:05:48.916Z,245
2016-03-16T13:06:48.919Z,245
2016-03-16T13:07:48.936Z,245
2016-03-16T13:08:48.955Z,240
2016-03-16T13:09:48.989Z,240
2016-03-16T13:10:48.960Z,240
2016-03-16T13:11:49.010Z,240
2016-03-16T13:12:48.996Z,235
2016-03-16T13:13:49.047Z,235
2016-03-16T13:14:49.033Z,230
2016-03-16T13:15:49.083Z,225
2016-03-16T13:16:49.101Z,220
2016-03-16T13:17:48.949Z,215
2016-03-16T13:18:49.138Z,210
2016-03-16T13:19:48.968Z,210
2016-03-16T13:20:49.174Z,215
2016-03-16T13:21:49.145Z,195
2016-03-16T13:22:49.212Z,200
2016-03-16T13:23:49.182Z,210
2016-03-16T13:24:49.232Z,210
2016-03-16T13:25:49.250Z,210
2016-03-16T13:26:49.254Z,205
2016-03-16T13:27:49.240Z,200
2016-03-16T13:28:49.133Z,205
2016-03-16T13:29:49.276Z,200
2016-03-16T13:30:49.296Z,200
2016-03-16T13:31:49.314Z,170
2016-03-16T13:32:49.331Z,200
2016-03-16T13:33:49.334Z,195
2016-03-16T13:34:49.368Z,200
2016-03-16T13:35:49.387Z,195
2016-03-16T13:36:49.405Z,195
2016-03-16T13:37:49.392Z,190
2016-03-16T13:38:49.441Z,140
2016-03-16T13:39:49.445Z,145
2016-03-16T13:40:49.478Z,190
2016-03-16T13:41:49.496Z,190
2016-03-16T13:42:49.515Z,185
2016-03-16T13:43:49.486Z,155
2016-03-16T13:44:49.567Z,200
2016-03-16T13:45:49.554Z,195
2016-03-16T13:46:49.541Z,195
2016-03-16T13:47:49.559Z,140
2016-03-16T13:48:49.578Z,140
2016-03-16T13:49:49.596Z,145
2016-03-16T13:50:49.615Z,145
2016-03-16T13:51:49.601Z,180
2016-03-16T13:52:49.652Z,155
2016-03-16T13:53:49.732Z,135
2016-03-16T13:54:49.687Z,135
2016-03-16T13:55:49.676Z,125
2016-03-16T13:56:49.724Z,120
2016-03-16T13:57:49.712Z,125
2016-03-16T13:58:49.745Z,125
2016-03-16T13:59:49.764Z,170
2016-03-16T14:00:49.751Z,125
2016-03-16T14:01:49.801Z,130
2016-03-16T14:02:49.834Z,135
2016-03-16T14:03:49.806Z,150
2016-03-16T14:04:49.809Z,180
2016-03-16T14:05:49.842Z,140
2016-03-16T14:06:49.876Z,160
2016-03-16T14:07:49.879Z,130
2016-03-16T14:08:49.882Z,130
2016-03-16T14:09:49.900Z,125
2016-03-16T14:10:49.981Z,125
2016-03-16T14:11:49.921Z,130
2016-03-16T14:12:49.986Z,130
2016-03-16T14:13:50.020Z,135
2016-03-16T14:14:50.022Z,150
2016-03-16T14:15:49.963Z,180